Terminal Aerodrome Forecast
Issued by NWS

Home | Current Version | Previous Version | Text Only | Print | Product List | Glossary Off
Versions: 1 2 3 4 5 6 7 8 9 10 11 12 13 14 15

000
FTUS43 KABR 221300 AAB
TAFMBG
TAF AMD
KMBG 221323Z 2213/2312 30014G23KT P6SM OVC090
      TEMPO 2214/2218 P6SM -SHRA OVC040
     FM221800 31010KT P6SM BKN050
     FM222200 VRB05KT P6SM SKC=

USA.gov is the U.S. government's official web portal to all federal, state and local government web resources and services.